Time;durP1;ratioP1;P1;durP2;ratioP2;P2;SDS_P1;SDS_P2;PMS_P1;PMS_P2;Temp;Humidity;BMP_temperature;BMP_pressure;BME280_temperature;BME280_humidity;BME280_pressure;Samples;Min_cycle;Max_cycle;Signal;HPM_P1;HPM_P2
2022/09/01 00:00:10;;;;;;;7.22;4.72;;;;;;;15.58;100.00;99171.88;5115091;28;20052;-85
2022/09/01 00:02:36;;;;;;;6.03;4.70;;;;;;;15.65;100.00;99185.53;5114034;28;20494;-85
2022/09/01 00:05:06;;;;;;;10.07;5.97;;;;;;;15.62;100.00;99185.97;5113298;28;20517;-85
2022/09/01 00:07:35;;;;;;;9.95;4.78;;;;;;;15.51;100.00;99168.31;5113637;28;20044;-85
2022/09/01 00:10:04;;;;;;;8.15;4.97;;;;;;;15.48;100.00;99174.22;5107400;28;20075;-84
2022/09/01 00:12:31;;;;;;;6.60;4.80;;;;;;;15.44;100.00;99172.97;5113557;28;20048;-85
2022/09/01 00:14:58;;;;;;;6.55;4.80;;;;;;;15.38;100.00;99171.91;5113585;28;20077;-85
2022/09/01 00:17:25;;;;;;;8.50;5.10;;;;;;;15.36;100.00;99174.03;5114386;28;20055;-86
2022/09/01 00:19:52;;;;;;;6.65;5.18;;;;;;;15.27;100.00;99171.78;5114253;28;20082;-85
2022/09/01 00:22:20;;;;;;;6.65;4.82;;;;;;;15.20;100.00;99167.16;5112957;28;20078;-85
2022/09/01 00:24:48;;;;;;;7.38;5.05;;;;;;;15.32;100.00;99180.16;5114351;28;20051;-86
2022/09/01 00:27:15;;;;;;;5.78;5.07;;;;;;;15.27;100.00;99180.81;5114770;28;20048;-85
2022/09/01 00:29:41;;;;;;;9.50;5.00;;;;;;;15.19;100.00;99175.56;5114209;28;20061;-85
2022/09/01 00:32:11;;;;;;;10.75;6.45;;;;;;;15.29;100.00;99175.97;5113656;28;20562;-85
2022/09/01 00:35:07;;;;;;;;;;;;;;;;;;;;;
2022/09/01 00:37:38;;;;;;;7.22;5.22;;;;;;;15.18;100.00;99176.63;5107082;28;20043;-84
2022/09/01 00:40:06;;;;;;;7.03;5.28;;;;;;;15.19;100.00;99170.94;5095961;28;20071;-84
2022/09/01 00:42:33;;;;;;;10.18;5.85;;;;;;;15.23;100.00;99187.78;5105013;28;20395;-85
2022/09/01 00:44:59;;;;;;;7.90;5.78;;;;;;;15.19;100.00;99175.56;5114008;28;20058;-85
2022/09/01 00:47:26;;;;;;;6.75;5.30;;;;;;;15.15;100.00;99179.81;5112963;28;20121;-85
2022/09/01 00:49:53;;;;;;;12.32;5.65;;;;;;;15.06;100.00;99157.28;5112651;28;20046;-84
2022/09/01 00:52:23;;;;;;;7.20;5.65;;;;;;;15.09;100.00;99161.50;5112854;28;20127;-85
2022/09/01 00:54:57;;;;;;;9.60;6.00;;;;;;;15.02;100.00;99156.88;5113846;28;20046;-85
2022/09/01 00:57:27;;;;;;;8.07;5.93;;;;;;;15.01;100.00;99157.09;5113502;28;20043;-85
2022/09/01 00:59:56;;;;;;;;;;;;;;;15.06;100.00;99181.09;5106871;28;20046;-86
2022/09/01 01:02:23;;;;;;;7.97;5.57;;;;;;;14.92;100.00;99161.09;5113195;28;20394;-85
2022/09/01 01:04:51;;;;;;;8.30;6.57;;;;;;;15.00;100.00;99167.19;5111599;28;20051;-86
2022/09/01 01:07:21;;;;;;;12.32;6.38;;;;;;;14.92;100.00;99156.47;5113550;28;20074;-85
2022/09/01 01:09:52;;;;;;;10.68;7.03;;;;;;;14.95;100.00;99177.09;5113273;28;20054;-87
2022/09/01 01:12:19;;;;;;;13.27;6.63;;;;;;;14.96;100.00;99181.53;5112744;28;20043;-84
2022/09/01 01:14:49;;;;;;;10.60;6.88;;;;;;;14.93;100.00;99181.94;5113493;28;20142;-85
2022/09/01 01:17:16;;;;;;;9.60;6.78;;;;;;;14.85;100.00;99170.16;5113337;28;20047;-87
2022/09/01 01:25:27;;;;;;;11.88;7.20;;;;;;;14.78;100.00;99163.84;5108454;27;20062;-85
2022/09/01 01:28:04;;;;;;;12.07;7.55;;;;;;;14.81;100.00;99171.66;5112840;28;20075;-85
2022/09/01 01:30:35;;;;;;;10.10;7.60;;;;;;;14.79;100.00;99148.28;5113272;28;20043;-84
2022/09/01 01:33:03;;;;;;;9.73;7.00;;;;;;;14.79;100.00;99153.75;5111866;28;20108;-85
2022/09/01 01:35:32;;;;;;;11.25;6.90;;;;;;;14.84;100.00;99163.03;5111532;28;20071;-85
2022/09/01 01:38:00;;;;;;;11.80;7.60;;;;;;;14.88;100.00;99174.38;5113928;28;20486;-85
2022/09/01 01:40:30;;;;;;;11.73;7.35;;;;;;;14.79;100.00;99165.53;5114619;28;20118;-85
2022/09/01 01:42:59;;;;;;;9.40;7.22;;;;;;;14.85;100.00;99172.06;5113876;27;20046;-85
2022/09/01 01:45:27;;;;;;;9.95;7.70;;;;;;;14.79;100.00;99164.72;5113235;28;20047;-85
2022/09/01 01:47:56;;;;;;;10.45;7.25;;;;;;;14.68;100.00;99158.00;5113259;28;20051;-85
2022/09/01 01:50:28;;;;;;;13.20;7.45;;;;;;;14.74;100.00;99176.28;5110749;28;20085;-85
2022/09/01 01:52:58;;;;;;;14.70;8.38;;;;;;;14.72;100.00;99170.16;5106368;28;20063;-85
2022/09/01 01:55:27;;;;;;;;;;;;;;;14.77;100.00;99175.00;5112820;28;20092;-85
2022/09/01 01:57:56;;;;;;;11.20;8.10;;;;;;;14.65;100.00;99163.88;5112771;28;19920;-85
2022/09/01 02:00:26;;;;;;;11.50;8.02;;;;;;;14.76;100.00;99179.66;5111696;28;20043;-85
2022/09/01 02:02:53;;;;;;;12.38;8.00;;;;;;;14.70;100.00;99172.28;5103868;28;20090;-85
2022/09/01 02:05:24;;;;;;;11.15;7.88;;;;;;;14.80;100.00;99189.13;5109787;28;20047;-85
2022/09/01 02:07:55;;;;;;;12.20;8.45;;;;;;;14.67;100.00;99179.00;5112207;28;20052;-84
2022/09/01 02:10:30;;;;;;;11.45;8.30;;;;;;;14.63;100.00;99168.72;5112401;28;20047;-85
2022/09/01 02:13:02;;;;;;;12.43;8.73;;;;;;;14.69;100.00;99176.06;5111789;28;20100;-85
2022/09/01 02:15:29;;;;;;;11.05;8.27;;;;;;;14.69;100.00;99182.41;5112302;28;20075;-85
2022/09/01 02:17:59;;;;;;;14.00;9.02;;;;;;;14.76;100.00;99190.59;5111383;28;20134;-85
2022/09/01 02:20:31;;;;;;;15.20;9.57;;;;;;;14.60;100.00;99174.56;5112356;28;20088;-85
2022/09/01 02:23:10;;;;;;;11.60;8.15;;;;;;;14.52;100.00;99164.69;5111605;28;20592;-85
2022/09/01 02:25:43;;;;;;;13.02;9.70;;;;;;;14.60;100.00;99183.63;5111474;28;20487;-85
2022/09/01 02:28:14;;;;;;;13.65;9.35;;;;;;;14.52;100.00;99170.16;5111950;28;21278;-86
2022/09/01 02:30:41;;;;;;;16.88;11.60;;;;;;;14.54;100.00;99169.94;5111889;28;20055;-85
2022/09/01 02:33:09;;;;;;;16.42;10.10;;;;;;;14.66;100.00;99179.22;5110369;27;20100;-85
2022/09/01 02:35:36;;;;;;;16.15;11.32;;;;;;;14.56;100.00;99179.63;5111957;28;20605;-85
2022/09/01 02:38:04;;;;;;;17.98;12.18;;;;;;;14.56;100.00;99178.78;5111231;28;20047;-86
2022/09/01 02:40:30;;;;;;;16.85;10.77;;;;;;;14.58;100.00;99179.41;5111872;28;20490;-85
2022/09/01 02:42:58;;;;;;;16.10;10.73;;;;;;;14.45;100.00;99161.97;5111036;28;20083;-86
2022/09/01 02:45:28;;;;;;;21.90;12.48;;;;;;;14.47;100.00;99162.59;5110879;27;20665;-85
2022/09/01 02:47:56;;;;;;;16.88;11.55;;;;;;;14.44;100.00;99168.47;5106557;28;20043;-85
2022/09/01 02:50:24;;;;;;;17.40;11.05;;;;;;;14.42;100.00;99167.84;5111500;28;20054;-85
2022/09/01 02:52:52;;;;;;;15.50;10.45;;;;;;;14.45;100.00;99166.56;5110995;28;20143;-85
2022/09/01 02:55:20;;;;;;;18.90;11.25;;;;;;;14.42;100.00;99177.94;5111123;28;20051;-85
2022/09/01 02:57:48;;;;;;;17.90;11.68;;;;;;;14.43;100.00;99171.44;5111451;28;20047;-85
2022/09/01 03:00:21;;;;;;;17.40;11.38;;;;;;;14.37;100.00;99167.63;5111765;28;20118;-85
2022/09/01 03:02:52;;;;;;;17.00;11.38;;;;;;;14.42;100.00;99180.66;5105891;28;20412;-85
2022/09/01 03:05:24;;;;;;;16.08;11.20;;;;;;;14.34;100.00;99154.38;5109739;28;20043;-85
2022/09/01 03:07:55;;;;;;;16.60;11.32;;;;;;;14.47;100.00;99179.00;5111032;28;20043;-85
2022/09/01 03:10:31;;;;;;;18.05;11.45;;;;;;;14.40;100.00;99189.09;5111326;28;20525;-85
2022/09/01 03:13:00;;;;;;;17.10;11.43;;;;;;;14.39;100.00;99178.34;5111110;28;20039;-86
2022/09/01 03:15:27;;;;;;;17.02;12.07;;;;;;;14.41;100.00;99181.75;5111519;28;20047;-85
2022/09/01 03:17:58;;;;;;;17.13;11.45;;;;;;;14.48;100.00;99183.44;5110350;28;20107;-85
2022/09/01 03:20:25;;;;;;;17.83;11.68;;;;;;;14.46;100.00;99177.31;5111124;28;20054;-85
2022/09/01 03:22:52;;;;;;;18.42;12.35;;;;;;;14.41;100.00;99162.59;5110465;28;20050;-85
2022/09/01 03:25:19;;;;;;;15.32;11.98;;;;;;;14.38;100.00;99183.00;5110843;28;20043;-85
2022/09/01 03:27:47;;;;;;;16.95;11.98;;;;;;;14.41;100.00;99177.09;5110799;28;20054;-85
2022/09/01 03:30:17;;;;;;;20.83;12.10;;;;;;;14.32;100.00;99170.16;5110880;27;20518;-85
2022/09/01 03:32:44;;;;;;;15.05;11.10;;;;;;;14.42;100.00;99188.88;5110464;28;20541;-85
2022/09/01 03:35:12;;;;;;;13.85;10.27;;;;;;;14.25;100.00;99182.97;5110890;28;20055;-85
2022/09/01 03:37:43;;;;;;;14.77;10.32;;;;;;;14.19;100.00;99181.06;5110856;28;20059;-85
2022/09/01 03:40:11;;;;;;;14.25;9.73;;;;;;;13.99;100.00;99169.03;5110963;28;20036;-85
2022/09/01 03:42:38;;;;;;;15.38;9.75;;;;;;;13.97;100.00;99183.97;5110150;27;20055;-84
2022/09/01 03:45:08;;;;;;;16.98;10.68;;;;;;;13.87;100.00;99167.13;5110058;28;20051;-85
2022/09/01 03:47:38;;;;;;;16.33;10.93;;;;;;;13.89;100.00;99178.69;5110901;28;20100;-85
2022/09/01 03:50:06;;;;;;;30.00;10.93;;;;;;;13.74;100.00;99155.09;5110826;28;20054;-85
2022/09/01 03:52:35;;;;;;;15.55;11.13;;;;;;;13.86;100.00;99171.75;5109921;28;20475;-85
2022/09/01 03:55:02;;;;;;;16.58;11.20;;;;;;;13.80;100.00;99173.44;5110983;28;20051;-85
2022/09/01 03:57:29;;;;;;;17.40;11.25;;;;;;;13.86;100.00;99179.13;5109895;28;20047;-85
2022/09/01 03:59:56;;;;;;;17.45;12.23;;;;;;;13.85;100.00;99169.22;5110904;28;20044;-85
2022/09/01 04:02:22;;;;;;;19.35;12.73;;;;;;;13.92;100.00;99167.34;5101899;28;20044;-85
2022/09/01 04:04:49;;;;;;;18.40;12.07;;;;;;;13.94;100.00;99176.16;5109084;28;20142;-85
2022/09/01 04:07:16;;;;;;;17.38;12.63;;;;;;;13.89;100.00;99173.22;5110790;27;20070;-85
2022/09/01 04:09:44;;;;;;;23.63;13.60;;;;;;;13.90;100.00;99183.13;5110802;28;20058;-85
2022/09/01 04:12:14;;;;;;;25.23;14.68;;;;;;;13.87;100.00;99186.28;5109240;28;20048;-84
2022/09/01 04:14:41;;;;;;;23.50;13.30;;;;;;;13.78;100.00;99172.78;5110459;28;20075;-84
2022/09/01 04:19:52;;;;;;;18.80;12.90;;;;;;;13.77;100.00;99179.28;5110357;28;20047;-84
2022/09/01 04:22:19;;;;;;;21.27;14.52;;;;;;;13.65;100.00;99171.91;5109892;28;20043;-85
2022/09/01 04:24:47;;;;;;;23.48;14.45;;;;;;;13.76;100.00;99183.09;5114203;27;20065;-84
2022/09/01 04:27:16;;;;;;;21.55;14.63;;;;;;;13.64;100.00;99168.34;5113555;28;20051;-84
2022/09/01 04:29:45;;;;;;;21.27;15.13;;;;;;;13.77;100.00;99194.84;5114210;28;20048;-84
2022/09/01 04:32:12;;;;;;;23.50;15.05;;;;;;;13.65;100.00;99186.38;5113844;28;20051;-85
2022/09/01 04:34:40;;;;;;;25.30;16.27;;;;;;;13.67;100.00;99195.25;5105951;28;20082;-85
2022/09/01 04:37:09;;;;;;;23.02;14.95;;;;;;;13.63;100.00;99180.31;5114722;28;20051;-85
2022/09/01 04:39:37;;;;;;;23.52;14.85;;;;;;;13.57;100.00;99183.84;5095616;28;20044;-85
2022/09/01 04:42:08;;;;;;;23.42;15.20;;;;;;;13.56;100.00;99174.78;5112175;28;20609;-85
2022/09/01 04:44:38;;;;;;;23.83;15.70;;;;;;;13.65;100.00;99191.03;5114060;28;20096;-85
2022/09/01 04:47:13;;;;;;;25.25;15.95;;;;;;;13.60;100.00;99187.00;5114215;28;20050;-85
2022/09/01 04:49:40;;;;;;;25.75;16.27;;;;;;;13.63;100.00;99181.13;5113683;27;20392;-85
2022/09/01 04:52:07;;;;;;;25.10;15.38;;;;;;;13.62;100.00;99195.84;5113355;28;20115;-85
2022/09/01 04:54:36;;;;;;;25.90;16.25;;;;;;;13.51;100.00;99187.41;5112984;28;20044;-85
2022/09/01 04:57:04;;;;;;;29.35;17.23;;;;;;;13.58;100.00;99201.94;5112716;28;20048;-85
2022/09/01 04:59:33;;;;;;;29.02;16.20;;;;;;;13.61;100.00;99190.59;5113432;28;20046;-85
2022/09/01 05:02:00;;;;;;;28.35;17.00;;;;;;;13.60;100.00;99189.72;5111799;28;20104;-85
2022/09/01 05:04:32;;;;;;;30.92;17.05;;;;;;;13.65;100.00;99199.22;5111794;28;20540;-86
2022/09/01 05:07:00;;;;;;;30.45;16.60;;;;;;;13.59;100.00;99200.88;5106166;28;20093;-85
2022/09/01 05:09:28;;;;;;;27.13;17.35;;;;;;;13.59;100.00;99204.47;5113620;28;20048;-85
2022/09/01 05:11:56;;;;;;;28.98;15.93;;;;;;;13.55;100.00;99199.59;5110708;27;20079;-85
2022/09/01 05:14:24;;;;;;;32.05;17.55;;;;;;;13.50;100.00;99192.00;5112740;28;20052;-85
2022/09/01 05:16:57;;;;;;;32.70;16.98;;;;;;;13.61;100.00;99199.63;5112854;28;20104;-86
2022/09/01 05:19:27;;;;;;;28.30;16.98;;;;;;;13.65;100.00;99200.03;5113021;28;20044;-85
2022/09/01 05:21:57;;;;;;;32.47;17.83;;;;;;;13.59;100.00;99192.66;5113016;28;20302;-85
2022/09/01 05:24:30;;;;;;;29.80;17.90;;;;;;;13.65;100.00;99188.28;5112398;28;20051;-85
2022/09/01 05:26:57;;;;;;;32.15;17.02;;;;;;;13.78;100.00;99199.28;5112315;28;20089;-85
2022/09/01 05:29:24;;;;;;;30.23;17.65;;;;;;;13.84;100.00;99189.41;5112976;28;20074;-85
2022/09/01 05:31:53;;;;;;;31.15;18.48;;;;;;;13.92;100.00;99202.88;5112782;28;20051;-85
2022/09/01 05:34:25;;;;;;;32.53;18.73;;;;;;;14.07;100.00;99213.66;5111889;28;20421;-85
2022/09/01 05:36:52;;;;;;;32.60;18.83;;;;;;;14.16;100.00;99221.44;5112995;28;20645;-84
2022/09/01 05:39:20;;;;;;;29.50;16.58;;;;;;;14.19;100.00;99217.44;5110771;28;20058;-85
2022/09/01 05:41:48;;;;;;;30.13;18.27;;;;;;;14.19;100.00;99203.78;5094004;28;20474;-85
2022/09/01 05:44:15;;;;;;;35.60;17.60;;;;;;;14.27;100.00;99213.69;5104324;28;20474;-85
2022/09/01 05:46:43;;;;;;;31.17;18.70;;;;;;;14.44;100.00;99216.88;5112918;28;20051;-85
2022/09/01 05:49:15;;;;;;;34.15;18.63;;;;;;;14.54;100.00;99203.59;5112740;28;20285;-85
2022/09/01 05:51:44;;;;;;;30.95;17.17;;;;;;;14.71;100.00;99220.50;5112672;28;20047;-85
2022/09/01 05:54:11;;;;;;;34.22;17.77;;;;;;;14.75;100.00;99209.97;5110182;28;20475;-85
2022/09/01 05:56:41;;;;;;;27.83;17.42;;;;;;;14.76;100.00;99204.28;5112462;28;20058;-85
2022/09/01 05:59:10;;;;;;;30.52;17.33;;;;;;;14.79;100.00;99195.63;5112351;28;20039;-85
2022/09/01 06:01:39;;;;;;;28.42;16.70;;;;;;;14.95;100.00;99212.66;5112138;27;20047;-85
2022/09/01 06:04:07;;;;;;;27.02;16.45;;;;;;;14.87;100.00;99180.91;5111831;28;20260;-85
2022/09/01 06:06:39;;;;;;;27.92;16.02;;;;;;;14.93;100.00;99199.19;5110486;28;20554;-86
2022/09/01 06:09:09;;;;;;;26.75;15.93;;;;;;;15.03;100.00;99204.25;5110663;28;20070;-84
2022/09/01 06:11:36;;;;;;;24.48;15.85;;;;;;;15.09;100.00;99203.41;5108078;28;20059;-85
2022/09/01 06:14:04;;;;;;;25.88;16.35;;;;;;;15.17;100.00;99205.06;5111481;28;20071;-85
2022/09/01 06:16:31;;;;;;;26.75;17.17;;;;;;;15.25;100.00;99202.13;5111565;28;20142;-85
2022/09/01 06:18:59;;;;;;;26.35;16.92;;;;;;;15.35;100.00;99201.66;5112230;28;20048;-85
2022/09/01 06:21:27;;;;;;;23.88;14.88;;;;;;;15.35;100.00;99197.00;5111410;28;20380;-84
2022/09/01 06:23:58;;;;;;;22.42;16.17;;;;;;;15.49;100.00;99191.47;5110217;28;20134;-85
2022/09/01 06:26:27;;;;;;;22.73;14.48;;;;;;;15.62;100.00;99201.56;5111702;28;20047;-85
2022/09/01 06:28:55;;;;;;;22.95;14.90;;;;;;;15.66;100.00;99186.38;5111854;28;20154;-85
2022/09/01 06:31:22;;;;;;;24.65;14.27;;;;;;;15.88;100.00;99193.25;5111524;28;20047;-85
2022/09/01 06:34:38;;;;;;;21.15;14.38;;;;;;;16.05;100.00;99201.81;5111852;28;20047;-85
2022/09/01 06:37:05;;;;;;;21.88;12.73;;;;;;;16.12;100.00;99189.97;5107701;28;20134;-85
2022/09/01 06:39:34;;;;;;;20.42;12.13;;;;;;;16.31;100.00;99199.13;5110304;28;20480;-85
2022/09/01 06:42:01;;;;;;;19.40;12.20;;;;;;;16.30;100.00;99189.22;5111424;28;20494;-85
2022/09/01 06:44:31;;;;;;;18.80;12.40;;;;;;;16.54;100.00;99177.41;5111066;27;20503;-84
2022/09/01 06:46:58;;;;;;;17.42;12.45;;;;;;;16.93;100.00;99180.88;5111110;28;20054;-85
2022/09/01 06:49:31;;;;;;;18.27;12.13;;;;;;;17.39;100.00;99181.47;5111370;28;20050;-85
2022/09/01 06:51:58;;;;;;;16.23;12.05;;;;;;;17.37;99.40;99186.34;5110490;27;20043;-85
2022/09/01 06:54:25;;;;;;;18.70;13.32;;;;;;;17.11;100.00;99184.75;5110714;28;20039;-85
2022/09/01 06:56:54;;;;;;;17.35;11.55;;;;;;;17.15;100.00;99195.03;5111594;28;20047;-85
2022/09/01 06:59:25;;;;;;;16.10;11.27;;;;;;;17.30;99.04;99188.34;5111278;28;20097;-85
2022/09/01 07:01:53;;;;;;;16.15;10.40;;;;;;;17.55;97.12;99198.41;5111182;28;20479;-85
2022/09/01 07:04:20;;;;;;;14.15;9.73;;;;;;;17.25;98.01;99189.03;5110387;28;20221;-85
2022/09/01 07:06:51;;;;;;;15.95;11.07;;;;;;;17.23;98.27;99204.91;5109346;28;20051;-85
2022/09/01 07:09:19;;;;;;;13.88;10.80;;;;;;;16.99;99.48;99188.22;5111010;28;20130;-85
2022/09/01 07:11:45;;;;;;;16.58;10.85;;;;;;;17.28;98.83;99206.94;5111504;28;20256;-85
2022/09/01 07:14:15;;;;;;;16.67;10.70;;;;;;;17.93;94.13;99211.94;5110178;28;20046;-85
2022/09/01 07:16:43;;;;;;;17.08;11.25;;;;;;;18.21;88.17;99203.06;5110781;28;20166;-84
2022/09/01 07:19:12;;;;;;;19.95;12.25;;;;;;;18.34;90.31;99207.53;5110367;28;20070;-85
2022/09/01 07:21:39;;;;;;;16.60;9.68;;;;;;;18.40;86.30;99200.25;5110197;28;20053;-85
2022/09/01 07:24:06;;;;;;;14.95;9.95;;;;;;;18.52;86.25;99192.88;5109571;28;20578;-85
2022/09/01 07:26:34;;;;;;;12.23;8.38;;;;;;;18.75;83.46;99192.06;5110825;28;20046;-85
2022/09/01 07:29:02;;;;;;;11.70;8.38;;;;;;;19.00;80.65;99199.31;5103012;28;20044;-85
2022/09/01 07:31:33;;;;;;;13.48;8.60;;;;;;;19.00;79.88;99204.81;5111139;28;20051;-85
2022/09/01 07:34:04;;;;;;;14.25;9.77;;;;;;;18.83;82.17;99199.13;5109627;28;20047;-85
2022/09/01 07:36:32;;;;;;;13.55;8.27;;;;;;;18.65;81.90;99196.47;5108805;27;20077;-85
2022/09/01 07:39:00;;;;;;;10.32;8.10;;;;;;;18.72;82.32;99203.53;5108804;28;20047;-85
2022/09/01 07:41:28;;;;;;;12.88;8.00;;;;;;;18.88;81.47;99215.81;5111023;28;20052;-85
2022/09/01 07:43:55;;;;;;;15.05;9.27;;;;;;;18.81;79.22;99200.47;5110390;28;20084;-85
2022/09/01 07:46:24;;;;;;;10.52;7.60;;;;;;;18.70;78.48;99193.88;5110673;28;20441;-85
2022/09/01 07:48:52;;;;;;;10.27;7.28;;;;;;;18.88;79.58;99217.75;5110626;28;20079;-84
2022/09/01 07:51:21;;;;;;;10.07;6.93;;;;;;;18.83;79.04;99198.28;5109950;28;20430;-84
2022/09/01 07:53:49;;;;;;;7.43;5.93;;;;;;;19.09;75.49;99217.16;5109301;28;20108;-85
2022/09/01 07:56:19;;;;;;;7.88;5.30;;;;;;;19.11;74.40;99208.63;5107230;28;20044;-85
2022/09/01 07:58:47;;;;;;;8.27;5.75;;;;;;;19.23;75.55;99225.19;5113406;28;20414;-85
2022/09/01 08:01:17;;;;;;;8.50;6.07;;;;;;;19.32;73.74;99217.38;5114975;28;20047;-85
2022/09/01 08:03:45;;;;;;;;;;;;;;;19.38;74.19;99219.19;5114529;28;20120;-85
2022/09/01 08:06:18;;;;;;;6.35;5.28;;;;;;;19.31;74.25;99226.72;5113476;27;19930;-85
2022/09/01 08:08:46;;;;;;;9.05;5.35;;;;;;;19.37;73.36;99223.00;5114439;28;20116;-85
2022/09/01 08:11:16;;;;;;;7.22;5.00;;;;;;;19.51;71.59;99209.78;5113306;28;20047;-85
2022/09/01 08:13:43;;;;;;;6.13;4.70;;;;;;;19.80;71.43;99228.09;5114264;27;20478;-85
2022/09/01 08:16:10;;;;;;;5.32;4.13;;;;;;;19.86;70.39;99208.91;5114285;28;20048;-84
2022/09/01 08:18:37;;;;;;;4.10;3.40;;;;;;;20.27;66.93;99218.00;5114275;28;20058;-85
2022/09/01 08:21:06;;;;;;;8.60;4.25;;;;;;;20.21;67.02;99207.94;5114125;27;20051;-85
2022/09/01 08:23:37;;;;;;;6.18;4.03;;;;;;;20.16;65.40;99231.59;5113464;28;20039;-84
2022/09/01 08:26:08;;;;;;;6.72;4.25;;;;;;;20.21;66.20;99210.69;5112761;28;20043;-84
2022/09/01 08:28:35;;;;;;;7.05;3.78;;;;;;;20.38;65.01;99222.59;5110943;28;20061;-84
2022/09/01 08:31:06;;;;;;;3.97;3.55;;;;;;;20.25;63.43;99233.94;5114317;28;20134;-84
2022/09/01 08:33:33;;;;;;;5.50;3.20;;;;;;;20.44;63.89;99235.41;5105471;28;20050;-84
2022/09/01 08:36:01;;;;;;;3.60;3.05;;;;;;;20.42;63.47;99211.91;5114085;28;20513;-85
2022/09/01 08:38:31;;;;;;;4.50;3.50;;;;;;;20.54;61.78;99223.72;5112318;28;20146;-84
2022/09/01 08:41:02;;;;;;;2.90;2.60;;;;;;;20.59;61.79;99212.75;5108718;28;20056;-84
2022/09/01 08:43:43;;;;;;;3.75;3.10;;;;;;;21.00;59.99;99227.31;5112929;28;20481;-85
2022/09/01 08:46:17;;;;;;;3.97;3.40;;;;;;;21.18;59.02;99206.84;5113784;28;20048;-84
2022/09/01 08:48:48;;;;;;;5.63;3.03;;;;;;;21.43;59.83;99227.66;5106596;28;20058;-84
2022/09/01 08:51:23;;;;;;;4.38;3.58;;;;;;;21.49;59.54;99231.34;5112630;28;20096;-85
2022/09/01 08:53:59;;;;;;;4.03;3.20;;;;;;;21.68;58.68;99216.13;5110785;28;20056;-85
2022/09/01 08:56:28;;;;;;;3.80;3.22;;;;;;;21.60;58.70;99224.88;5113121;28;20048;-84
2022/09/01 08:58:55;;;;;;;5.00;2.88;;;;;;;21.48;59.18;99221.34;5109603;28;20051;-85
2022/09/01 09:01:28;;;;;;;5.50;3.35;;;;;;;21.39;60.20;99235.63;5112353;28;20050;-84
2022/09/01 09:04:07;;;;;;;4.43;3.05;;;;;;;21.42;59.74;99238.97;5106825;28;20047;-83
2022/09/01 09:06:43;;;;;;;4.38;3.58;;;;;;;21.28;60.07;99241.25;5112463;28;20039;-84
2022/09/01 09:09:10;;;;;;;9.50;3.33;;;;;;;21.04;61.36;99231.22;5112909;28;20453;-85
2022/09/01 09:12:09;;;;;;;4.70;3.20;;;;;;;21.10;61.17;99243.19;5112032;28;20138;-84
2022/09/01 09:14:56;;;;;;;5.70;3.50;;;;;;;21.04;61.15;99245.03;5112932;28;20404;-84
2022/09/01 09:17:28;;;;;;;4.07;2.78;;;;;;;21.02;61.00;99230.63;5112104;28;20075;-84
2022/09/01 09:19:55;;;;;;;5.53;3.15;;;;;;;20.81;61.32;99225.88;5105925;28;20061;-85
2022/09/01 09:22:22;;;;;;;4.47;3.10;;;;;;;20.75;61.89;99236.00;5112489;28;20126;-85
2022/09/01 09:24:54;;;;;;;3.28;2.95;;;;;;;20.78;62.36;99221.69;5111258;28;20048;-85
2022/09/01 09:27:25;;;;;;;4.75;3.30;;;;;;;20.98;62.07;99245.22;5112671;27;20143;-85
2022/09/01 09:29:54;;;;;;;3.40;2.63;;;;;;;21.00;61.77;99231.97;5112493;28;20161;-85
2022/09/01 09:32:22;;;;;;;7.18;3.20;;;;;;;21.16;59.77;99227.53;5112204;28;20340;-85
2022/09/01 09:34:49;;;;;;;5.80;3.05;;;;;;;20.96;61.33;99237.19;5112695;28;20100;-85
2022/09/01 09:37:25;;;;;;;4.55;2.60;;;;;;;20.79;61.10;99245.47;5112220;28;20050;-85
2022/09/01 09:40:10;;;;;;;9.55;2.95;;;;;;;20.29;62.06;99227.72;5112163;28;20054;-85
2022/09/01 09:42:41;;;;;;;4.93;2.97;;;;;;;20.39;64.06;99238.09;5111617;28;20117;-85
2022/09/01 09:45:24;;;;;;;6.85;3.65;;;;;;;20.13;65.78;99239.53;5112881;27;20039;-84
2022/09/01 09:47:52;;;;;;;6.18;3.60;;;;;;;20.05;66.00;99242.66;5112622;28;20079;-85
2022/09/01 09:50:23;;;;;;;3.78;3.20;;;;;;;20.01;66.45;99247.84;5111895;28;20048;-84
2022/09/01 09:55:32;;;;;;;5.05;2.97;;;;;;;20.25;65.95;99233.94;5113201;28;20051;-85
2022/09/01 09:58:09;;;;;;;3.95;3.10;;;;;;;20.38;65.08;99230.88;5111635;28;20108;-84
2022/09/01 10:00:36;;;;;;;3.53;2.83;;;;;;;;;;5112092;28;20137;-85
2022/09/01 10:03:06;;;;;;;6.13;3.10;;;;;;;20.87;62.62;99230.41;5111365;28;20497;-84
2022/09/01 10:05:43;;;;;;;3.50;2.75;;;;;;;20.98;61.73;99225.88;5110379;28;20152;-85
2022/09/01 10:08:13;;;;;;;3.80;3.38;;;;;;;21.00;60.89;99210.72;5106036;28;20077;-84
2022/09/01 10:10:43;;;;;;;4.20;3.20;;;;;;;21.36;60.64;99210.41;5112028;28;20437;-84
2022/09/01 10:13:14;;;;;;;3.75;3.30;;;;;;;21.58;58.79;99193.88;5111494;28;20058;-84
2022/09/01 10:15:43;;;;;;;3.25;2.72;;;;;;;22.10;56.92;99217.47;5111973;28;20053;-85
2022/09/01 10:18:14;;;;;;;4.38;2.65;;;;;;;22.28;56.77;99202.41;5106080;28;20048;-84
2022/09/01 10:20:49;;;;;;;3.40;2.38;;;;;;;22.40;54.52;99217.00;5110882;28;20538;-84
2022/09/01 10:23:16;;;;;;;2.72;1.73;;;;;;;22.32;53.04;99216.63;5104378;28;20051;-84
2022/09/01 10:25:43;;;;;;;3.20;1.98;;;;;;;22.32;53.45;99211.91;5111941;27;20063;-84
2022/09/01 10:28:16;;;;;;;2.70;2.10;;;;;;;22.12;53.85;99215.28;5111913;27;20142;-84
2022/09/01 10:30:45;;;;;;;4.35;2.08;;;;;;;21.95;53.55;99201.53;5108568;28;20554;-85
2022/09/01 10:33:16;;;;;;;8.65;2.03;;;;;;;22.07;54.49;99207.75;5107048;28;20054;-84
2022/09/01 10:35:49;;;;;;;7.10;2.28;;;;;;;21.83;55.87;99220.19;5111360;28;20403;-84
2022/09/01 10:38:19;;;;;;;2.85;2.30;;;;;;;21.84;55.29;99219.09;5111697;28;20048;-84
2022/09/01 10:41:05;;;;;;;5.85;2.45;;;;;;;22.06;54.85;99211.59;5111491;28;20089;-84
2022/09/01 10:43:41;;;;;;;3.10;2.80;;;;;;;21.77;56.11;99202.69;5104660;28;20676;-84
2022/09/01 10:46:25;;;;;;;4.38;2.92;;;;;;;21.44;57.59;99222.94;5109618;28;20101;-84
2022/09/01 10:48:53;;;;;;;4.25;3.00;;;;;;;21.45;57.85;99217.16;5106272;28;20536;-84
2022/09/01 10:51:45;;;;;;;5.25;3.03;;;;;;;21.78;57.08;99209.06;5111517;28;20047;-84
2022/09/01 10:54:45;;;;;;;4.78;3.25;;;;;;;22.25;55.59;99208.47;5110527;28;20055;-84
2022/09/01 10:57:22;;;;;;;;;;;;;;;22.71;54.32;99208.13;5111320;28;20471;-84
2022/09/01 10:59:51;;;;;;;3.88;2.67;;;;;;;22.85;53.92;99209.34;5111184;28;19979;-84
2022/09/01 11:02:20;;;;;;;3.30;3.00;;;;;;;22.88;53.32;99205.22;5109657;28;20044;-84
2022/09/01 11:05:16;;;;;;;6.35;2.72;;;;;;;23.03;52.71;99196.19;5110019;28;20550;-84
2022/09/01 11:07:45;;;;;;;3.00;2.25;;;;;;;23.29;50.94;99195.28;5108869;28;20524;-85
2022/09/01 11:10:39;;;;;;;3.30;2.28;;;;;;;23.30;50.61;99182.25;5110633;28;20502;-84
2022/09/01 11:13:30;;;;;;;3.38;2.10;;;;;;;23.29;49.37;99189.75;5110249;27;20146;-84
2022/09/01 11:16:32;;;;;;;2.67;2.13;;;;;;;23.26;50.44;99189.44;5110794;28;20067;-85
2022/09/01 11:19:32;;;;;;;4.30;2.47;;;;;;;23.41;50.39;99170.13;5101939;28;20180;-84
2022/09/01 11:22:14;;;;;;;2.58;2.17;;;;;;;23.99;47.97;99166.47;5106650;28;20080;-84
2022/09/01 11:24:51;;;;;;;4.47;2.08;;;;;;;23.87;47.46;99172.28;5108580;28;20066;-84
2022/09/01 11:28:01;;;;;;;3.38;2.10;;;;;;;24.49;47.26;99176.00;5110528;28;20047;-85
2022/09/01 11:30:40;;;;;;;2.40;2.00;;;;;;;24.26;45.80;99168.22;5067674;28;20041;-84
2022/09/01 11:33:19;;;;;;;3.03;2.40;;;;;;;24.39;45.63;99173.25;5112391;27;20089;-85
2022/09/01 11:35:46;;;;;;;3.05;2.22;;;;;;;24.41;45.79;99147.97;5111272;28;20143;-84
2022/09/01 11:38:18;;;;;;;2.45;2.22;;;;;;;24.92;45.87;99159.09;5114426;28;20139;-84
2022/09/01 11:40:57;;;;;;;3.17;2.30;;;;;;;24.61;45.44;99147.16;5117253;27;20044;-84
2022/09/01 11:43:26;;;;;;;2.63;2.37;;;;;;;24.59;46.05;99153.00;5113119;27;20122;-84
2022/09/01 11:46:06;;;;;;;2.63;2.00;;;;;;;24.51;45.60;99167.38;5117491;27;20055;-84
2022/09/01 11:48:34;;;;;;;3.65;2.10;;;;;;;24.10;45.88;99142.34;5115602;28;20047;-84
2022/09/01 11:51:03;;;;;;;2.60;2.17;;;;;;;23.90;46.73;99151.47;5117294;28;20047;-84